createdAt,value
2023-02-25T00:02:15.900Z,1.23
2023-02-25T00:04:42.240Z,1.17
2023-02-25T00:07:09.033Z,1.52
2023-02-25T00:09:35.689Z,1.08
2023-02-25T00:12:02.147Z,0.98
2023-02-25T00:14:28.928Z,1.38
2023-02-25T00:16:56.354Z,1.03
2023-02-25T00:19:24.660Z,1.25
2023-02-25T00:21:51.146Z,1.25
2023-02-25T00:24:17.745Z,0.98
2023-02-25T00:26:44.774Z,1.15
2023-02-25T00:29:11.120Z,0.87
2023-02-25T00:31:37.605Z,0.70
2023-02-25T00:34:04.096Z,0.75
2023-02-25T00:36:30.590Z,0.63
2023-02-25T00:38:57.567Z,1.08
2023-02-25T00:41:28.291Z,0.70
2023-02-25T00:43:57.855Z,0.68
2023-02-25T00:46:25.412Z,1.10
2023-02-25T00:48:52.245Z,0.85
2023-02-25T00:51:22.420Z,1.20
2023-02-25T00:53:48.864Z,1.07
2023-02-25T00:56:17.180Z,0.90
2023-02-25T00:58:45.355Z,0.55
2023-02-25T01:01:20.968Z,0.90
2023-02-25T01:03:48.616Z,1.48
2023-02-25T01:06:15.400Z,0.70
2023-02-25T01:08:42.594Z,0.90
2023-02-25T01:11:27.457Z,1.20
2023-02-25T01:13:55.480Z,1.00
2023-02-25T01:16:25.215Z,0.73
2023-02-25T01:18:57.267Z,0.83
2023-02-25T01:21:27.779Z,1.00
2023-02-25T01:23:58.685Z,1.02
2023-02-25T01:26:32.031Z,0.75
2023-02-25T01:28:58.568Z,0.85
2023-02-25T01:31:29.126Z,1.10
2023-02-25T01:33:59.772Z,1.73
2023-02-25T01:36:27.119Z,1.60
2023-02-25T01:38:53.491Z,1.10
2023-02-25T01:41:19.908Z,1.33
2023-02-25T01:44:16.467Z,1.57
2023-02-25T01:46:45.369Z,1.63
2023-02-25T01:49:18.268Z,1.02
2023-02-25T01:51:47.525Z,1.50
2023-02-25T01:54:15.824Z,0.90
2023-02-25T01:56:48.545Z,1.13
2023-02-25T01:59:16.124Z,1.10
2023-02-25T02:01:43.336Z,1.08
2023-02-25T02:04:12.007Z,0.90
2023-02-25T02:06:41.603Z,1.30
2023-02-25T02:09:13.326Z,1.97
2023-02-25T02:11:39.987Z,1.10
2023-02-25T02:14:08.806Z,0.65
2023-02-25T02:16:59.155Z,1.20
2023-02-25T02:19:37.555Z,0.80
2023-02-25T02:22:31.359Z,0.97
2023-02-25T02:25:28.920Z,0.85
2023-02-25T02:28:01.434Z,0.98
2023-02-25T02:30:47.649Z,1.13
2023-02-25T02:33:38.165Z,1.10
2023-02-25T02:36:49.199Z,1.20
2023-02-25T02:39:34.632Z,1.08
2023-02-25T02:42:22.458Z,1.40
2023-02-25T02:45:02.627Z,1.23
2023-02-25T02:47:34.751Z,1.25
2023-02-25T02:50:12.060Z,1.63
2023-02-25T02:52:44.413Z,1.25
2023-02-25T02:55:22.108Z,1.33
2023-02-25T02:57:53.729Z,0.85
2023-02-25T03:00:28.211Z,1.20
2023-02-25T03:03:05.126Z,1.20
2023-02-25T03:05:35.154Z,1.45
2023-02-25T03:08:14.171Z,1.90
2023-02-25T03:10:40.555Z,1.33
2023-02-25T03:13:07.007Z,1.60
2023-02-25T03:15:34.676Z,1.00
2023-02-25T03:18:06.985Z,1.85
2023-02-25T03:20:42.024Z,1.17
2023-02-25T03:23:17.460Z,1.60
2023-02-25T03:25:59.492Z,0.90
2023-02-25T03:28:29.877Z,1.43
2023-02-25T03:31:11.482Z,1.02
2023-02-25T03:33:56.209Z,0.93
2023-02-25T03:36:32.251Z,1.77
2023-02-25T03:39:04.809Z,1.50
2023-02-25T03:41:36.054Z,1.67
2023-02-25T03:44:07.978Z,1.25
2023-02-25T03:46:35.776Z,1.30
2023-02-25T03:49:04.508Z,1.83
2023-02-25T03:51:35.593Z,0.85
2023-02-25T03:54:02.621Z,1.27
2023-02-25T03:56:29.115Z,1.50
2023-02-25T03:58:55.502Z,1.02
2023-02-25T04:01:27.728Z,1.50
2023-02-25T04:03:54.186Z,1.38
2023-02-25T04:06:23.191Z,1.07
2023-02-25T04:08:51.385Z,1.45
2023-02-25T04:11:17.812Z,1.10
2023-02-25T04:13:44.201Z,1.58
2023-02-25T04:16:10.675Z,1.98
2023-02-25T04:18:37.498Z,1.23
2023-02-25T04:21:06.446Z,0.90
2023-02-25T04:23:33.845Z,1.95
2023-02-25T04:26:00.633Z,1.52
2023-02-25T04:28:26.963Z,1.48
2023-02-25T04:30:53.537Z,1.00
2023-02-25T04:33:20.006Z,1.13
2023-02-25T04:35:46.383Z,1.10
2023-02-25T04:38:12.735Z,1.30
2023-02-25T04:40:39.167Z,0.85
2023-02-25T04:43:05.674Z,1.80
2023-02-25T04:45:32.145Z,0.82
2023-02-25T04:47:58.539Z,1.13
2023-02-25T04:50:25.154Z,2.00
2023-02-25T04:52:51.612Z,1.27
2023-02-25T04:55:18.284Z,0.80
2023-02-25T04:57:44.650Z,0.90
2023-02-25T05:00:20.646Z,1.25
2023-02-25T05:02:48.194Z,1.17
2023-02-25T05:05:15.837Z,0.68
2023-02-25T05:07:42.885Z,0.67
2023-02-25T05:10:12.361Z,1.00
2023-02-25T05:12:38.799Z,1.08
2023-02-25T05:15:08.253Z,1.27
2023-02-25T05:17:35.858Z,1.00
2023-02-25T05:20:02.300Z,1.07
2023-02-25T05:22:28.780Z,0.77
2023-02-25T05:24:55.151Z,1.20
2023-02-25T05:27:21.590Z,1.00
2023-02-25T05:29:47.909Z,1.77
2023-02-25T05:32:14.619Z,0.80
2023-02-25T05:34:41.651Z,1.20
2023-02-25T05:37:08.109Z,2.03
2023-02-25T05:39:34.508Z,1.08
2023-02-25T05:42:00.824Z,1.10
2023-02-25T05:44:27.141Z,1.47
2023-02-25T05:46:53.580Z,1.40
2023-02-25T05:49:19.932Z,2.10
2023-02-25T05:51:46.235Z,1.17
2023-02-25T05:54:12.621Z,1.75
2023-02-25T05:56:38.944Z,1.30
2023-02-25T05:59:05.338Z,1.77
2023-02-25T06:01:31.857Z,1.08
2023-02-25T06:03:59.095Z,1.25
2023-02-25T06:06:27.882Z,1.00
2023-02-25T06:08:54.307Z,1.20
2023-02-25T06:11:24.061Z,1.58
2023-02-25T06:13:51.917Z,1.00
2023-02-25T06:16:18.684Z,1.10
2023-02-25T06:18:46.111Z,1.30
2023-02-25T06:21:14.291Z,3.07
2023-02-25T06:23:42.452Z,0.90
2023-02-25T06:26:11.272Z,1.35
2023-02-25T06:28:38.312Z,1.20
2023-02-25T06:31:12.000Z,1.20
2023-02-25T06:33:39.168Z,1.50
2023-02-25T06:36:06.398Z,1.10
2023-02-25T06:38:34.196Z,1.20
2023-02-25T06:41:06.092Z,1.35
2023-02-25T06:43:32.426Z,1.13
2023-02-25T06:45:58.830Z,1.40
2023-02-25T06:48:25.630Z,1.75
2023-02-25T06:50:52.104Z,1.30
2023-02-25T06:53:18.502Z,1.60
2023-02-25T06:55:44.894Z,1.48
2023-02-25T06:58:11.253Z,1.13
2023-02-25T07:00:37.725Z,1.25
2023-02-25T07:03:04.240Z,1.23
2023-02-25T07:05:30.902Z,1.05
2023-02-25T07:07:57.384Z,1.00
2023-02-25T07:10:24.074Z,1.20
2023-02-25T07:12:52.278Z,0.73
2023-02-25T07:15:19.646Z,0.88
2023-02-25T07:17:45.993Z,0.65
2023-02-25T07:20:12.825Z,0.80
2023-02-25T07:22:39.268Z,0.77
2023-02-25T07:25:06.364Z,1.02
2023-02-25T07:27:32.823Z,1.20
2023-02-25T07:30:00.597Z,1.20
2023-02-25T07:32:27.195Z,1.02
2023-02-25T07:34:53.777Z,1.77
2023-02-25T07:37:20.149Z,1.35
2023-02-25T07:39:47.789Z,1.10
2023-02-25T07:42:14.315Z,0.70
2023-02-25T07:44:40.878Z,0.93
2023-02-25T07:47:07.434Z,1.20
2023-02-25T07:49:33.817Z,1.52
2023-02-25T07:52:00.791Z,1.08
2023-02-25T07:54:27.184Z,1.35
2023-02-25T07:56:53.572Z,1.25
2023-02-25T07:59:19.997Z,0.80
2023-02-25T08:01:46.472Z,1.27
2023-02-25T08:04:13.015Z,1.38
2023-02-25T08:06:41.070Z,1.02
2023-02-25T08:09:11.012Z,1.23
2023-02-25T08:11:37.963Z,1.37
2023-02-25T08:14:05.805Z,1.80
2023-02-25T08:16:33.052Z,0.70
2023-02-25T08:18:59.657Z,1.05
2023-02-25T08:21:26.580Z,0.85
2023-02-25T08:23:54.330Z,1.10
2023-02-25T08:26:22.479Z,1.35
2023-02-25T08:28:50.296Z,1.65
2023-02-25T08:31:17.970Z,1.40
2023-02-25T08:33:49.581Z,1.98
2023-02-25T08:36:24.395Z,0.90
2023-02-25T08:38:51.623Z,1.50
2023-02-25T08:41:19.689Z,1.35
2023-02-25T08:43:51.276Z,0.93
2023-02-25T08:46:20.027Z,1.15
2023-02-25T08:48:50.186Z,1.53
2023-02-25T08:51:17.184Z,0.38
2023-02-25T08:53:43.557Z,0.63
2023-02-25T08:56:12.901Z,0.80
2023-02-25T08:58:40.620Z,0.75
2023-02-25T09:01:15.280Z,1.00
2023-02-25T09:03:52.619Z,0.90
2023-02-25T09:06:24.157Z,0.70
2023-02-25T09:08:51.965Z,1.10
2023-02-25T09:11:19.673Z,0.65
2023-02-25T09:13:46.016Z,0.90
2023-02-25T09:16:17.192Z,0.68
2023-02-25T09:18:45.158Z,0.63
2023-02-25T09:21:12.312Z,0.98
2023-02-25T09:23:38.670Z,1.45
2023-02-25T09:26:07.023Z,1.07
2023-02-25T09:28:34.122Z,0.57
2023-02-25T09:31:02.391Z,1.10
2023-02-25T09:33:30.838Z,0.52
2023-02-25T09:36:08.441Z,0.45
2023-02-25T09:38:36.509Z,0.90
2023-02-25T09:41:03.968Z,0.75
2023-02-25T09:43:40.643Z,0.60
2023-02-25T09:46:13.473Z,0.77
2023-02-25T09:49:02.219Z,0.85
2023-02-25T09:51:34.147Z,0.67
2023-02-25T09:54:13.747Z,0.60
2023-02-25T09:56:40.166Z,0.80
2023-02-25T09:59:14.592Z,0.60
2023-02-25T10:01:49.218Z,0.43
2023-02-25T10:04:31.432Z,0.67
2023-02-25T10:07:05.862Z,0.52
2023-02-25T10:09:45.420Z,0.50
2023-02-25T10:12:26.769Z,0.50
2023-02-25T10:15:41.096Z,0.32
2023-02-25T10:18:25.962Z,0.43
2023-02-25T10:21:07.905Z,0.30
2023-02-25T10:23:40.453Z,0.43
2023-02-25T10:26:29.875Z,0.47
2023-02-25T10:29:06.704Z,0.40
2023-02-25T10:31:34.385Z,0.53
2023-02-25T10:34:19.784Z,0.50
2023-02-25T10:36:52.484Z,0.65
2023-02-25T10:39:19.084Z,0.70
2023-02-25T10:41:45.458Z,0.45
2023-02-25T10:44:15.786Z,0.50
2023-02-25T10:46:49.993Z,0.57
2023-02-25T10:49:27.782Z,0.65
2023-02-25T10:51:57.275Z,0.40
2023-02-25T10:54:25.033Z,0.45
2023-02-25T10:56:52.850Z,0.50
2023-02-25T11:00:02.032Z,0.50
2023-02-25T11:02:31.774Z,0.60
2023-02-25T11:04:58.294Z,0.43
2023-02-25T11:07:39.873Z,0.35
2023-02-25T11:10:13.926Z,0.70
2023-02-25T11:12:43.498Z,0.77
2023-02-25T11:15:45.240Z,0.40
2023-02-25T11:18:26.958Z,0.93
2023-02-25T11:20:56.253Z,0.73
2023-02-25T11:23:29.823Z,1.20
2023-02-25T11:25:57.400Z,0.80
2023-02-25T11:28:30.036Z,0.93
2023-02-25T11:31:10.323Z,0.93
2023-02-25T11:33:41.971Z,0.60
2023-02-25T11:36:10.413Z,1.10
2023-02-25T11:38:42.984Z,0.60
2023-02-25T11:41:20.261Z,1.00
2023-02-25T11:43:47.605Z,0.65
2023-02-25T11:46:23.189Z,0.80
2023-02-25T11:48:54.688Z,0.70
2023-02-25T11:52:09.171Z,0.60
2023-02-25T11:54:54.153Z,0.50
2023-02-25T11:57:28.762Z,0.60
2023-02-25T12:00:18.598Z,0.70
2023-02-25T12:03:03.032Z,0.90
2023-02-25T12:05:48.290Z,0.70
2023-02-25T12:08:32.982Z,0.50
2023-02-25T12:11:08.418Z,0.52
2023-02-25T12:13:58.106Z,0.73
2023-02-25T12:16:49.571Z,0.80
2023-02-25T12:19:26.084Z,0.60
2023-02-25T12:22:39.985Z,0.70
2023-02-25T12:25:16.088Z,0.70
2023-02-25T12:27:52.337Z,1.27
2023-02-25T12:30:41.358Z,0.60
2023-02-25T12:33:33.032Z,1.00
2023-02-25T12:36:31.408Z,1.70
2023-02-25T12:39:31.921Z,1.08
2023-02-25T12:42:26.104Z,0.93
2023-02-25T12:45:14.221Z,0.70
2023-02-25T12:48:17.196Z,1.17
2023-02-25T12:50:51.995Z,0.50
2023-02-25T12:53:33.529Z,0.32
2023-02-25T12:56:18.704Z,0.88
2023-02-25T12:59:18.791Z,0.50
2023-02-25T13:02:08.460Z,0.90
2023-02-25T13:04:51.295Z,0.90
2023-02-25T13:07:44.794Z,0.77
2023-02-25T13:10:35.554Z,0.90
2023-02-25T13:13:42.687Z,0.80
2023-02-25T13:16:42.995Z,0.90
2023-02-25T13:19:43.836Z,0.60
2023-02-25T13:22:16.202Z,1.20
2023-02-25T13:25:14.551Z,1.10
2023-02-25T13:27:51.756Z,0.77
2023-02-25T13:30:31.356Z,1.35
2023-02-25T13:33:22.940Z,0.60
2023-02-25T13:35:59.224Z,0.98
2023-02-25T13:38:50.428Z,0.80
2023-02-25T13:41:48.041Z,0.80
2023-02-25T13:44:39.092Z,0.50
2023-02-25T13:47:17.666Z,0.70
2023-02-25T13:50:18.435Z,0.90
2023-02-25T13:53:22.791Z,0.70
2023-02-25T13:55:52.157Z,0.57
2023-02-25T13:58:27.537Z,0.70
2023-02-25T14:01:09.124Z,0.68
2023-02-25T14:03:53.801Z,0.60
2023-02-25T14:06:23.144Z,0.77
2023-02-25T14:08:55.424Z,0.70
2023-02-25T14:11:33.821Z,0.73
2023-02-25T14:14:27.674Z,0.77
2023-02-25T14:17:41.667Z,0.90
2023-02-25T14:20:45.492Z,0.65
2023-02-25T14:23:28.371Z,0.77
2023-02-25T14:26:20.117Z,1.20
2023-02-25T14:28:55.931Z,0.52
2023-02-25T14:31:27.913Z,1.10
2023-02-25T14:34:06.495Z,0.60
2023-02-25T14:36:56.288Z,0.53
2023-02-25T14:39:28.936Z,1.13
2023-02-25T14:42:18.270Z,0.80
2023-02-25T14:44:54.489Z,0.52
2023-02-25T14:47:25.007Z,0.65
2023-02-25T14:50:05.545Z,0.73
2023-02-25T14:53:05.033Z,0.70
2023-02-25T14:55:55.952Z,0.80
2023-02-25T14:58:56.302Z,0.70
2023-02-25T15:01:50.131Z,0.50
2023-02-25T15:04:44.690Z,0.40
2023-02-25T15:07:38.391Z,0.60
2023-02-25T15:10:32.565Z,0.60
2023-02-25T15:13:09.782Z,0.80
2023-02-25T15:16:29.137Z,0.68
2023-02-25T15:19:27.101Z,1.03
2023-02-25T15:22:37.471Z,1.10
2023-02-25T15:25:36.735Z,1.02
2023-02-25T15:28:23.700Z,2.03
2023-02-25T15:31:02.456Z,0.70
2023-02-25T15:33:36.580Z,0.60
2023-02-25T15:36:15.022Z,0.93
2023-02-25T15:38:44.448Z,0.80
2023-02-25T15:41:38.650Z,0.80
2023-02-25T15:44:08.011Z,0.52
2023-02-25T15:46:34.611Z,1.00
2023-02-25T15:49:05.807Z,0.90
2023-02-25T15:51:46.235Z,1.08
2023-02-25T15:54:27.897Z,1.38
2023-02-25T15:57:00.350Z,0.73
2023-02-25T15:59:45.485Z,0.80
2023-02-25T16:02:30.032Z,0.80
2023-02-25T16:05:02.536Z,0.85
2023-02-25T16:07:33.107Z,0.90
2023-02-25T16:10:18.326Z,1.00
2023-02-25T16:12:48.663Z,1.27
2023-02-25T16:15:31.047Z,2.47
2023-02-25T16:18:04.489Z,1.02
2023-02-25T16:20:46.278Z,1.08
2023-02-25T16:23:14.061Z,1.00
2023-02-25T16:26:04.420Z,1.40
2023-02-25T16:28:52.676Z,0.80
2023-02-25T16:31:47.478Z,0.60
2023-02-25T16:34:28.082Z,0.57
2023-02-25T16:37:02.276Z,0.93
2023-02-25T16:39:30.874Z,0.80
2023-02-25T16:42:12.941Z,0.65
2023-02-25T16:44:41.862Z,0.80
2023-02-25T16:47:23.707Z,1.30
2023-02-25T16:49:51.872Z,1.13
2023-02-25T16:52:23.523Z,0.67
2023-02-25T16:54:56.695Z,0.77
2023-02-25T16:57:24.795Z,0.98
2023-02-25T17:00:06.115Z,1.42
2023-02-25T17:02:32.464Z,1.20
2023-02-25T17:04:58.815Z,1.50
2023-02-25T17:07:27.903Z,0.95
2023-02-25T17:10:00.523Z,1.42
2023-02-25T17:12:40.836Z,1.75
2023-02-25T17:15:28.529Z,1.20
2023-02-25T17:18:12.308Z,1.20
2023-02-25T17:20:39.697Z,1.92
2023-02-25T17:23:11.637Z,2.10
2023-02-25T17:25:44.449Z,2.03
2023-02-25T17:28:21.710Z,2.05
2023-02-25T17:30:49.388Z,2.50
2023-02-25T17:33:26.967Z,2.15
2023-02-25T17:35:58.822Z,2.53
2023-02-25T17:38:26.084Z,2.85
2023-02-25T17:40:55.181Z,2.00
2023-02-25T17:43:32.357Z,2.00
2023-02-25T17:46:17.691Z,1.80
2023-02-25T17:48:51.609Z,2.22
2023-02-25T17:51:18.905Z,2.42
2023-02-25T17:53:54.117Z,3.40
2023-02-25T17:56:25.142Z,2.93
2023-02-25T17:58:54.010Z,2.58
2023-02-25T18:01:30.796Z,3.13
2023-02-25T18:03:59.958Z,2.05
2023-02-25T18:06:34.047Z,2.28
2023-02-25T18:09:02.682Z,2.80
2023-02-25T18:11:32.330Z,4.05
2023-02-25T18:14:03.490Z,4.18
2023-02-25T18:16:41.461Z,4.20
2023-02-25T18:19:24.089Z,4.75
2023-02-25T18:21:51.829Z,3.67
2023-02-25T18:24:27.280Z,2.67
2023-02-25T18:27:08.301Z,1.50
2023-02-25T18:29:35.322Z,1.65
2023-02-25T18:32:01.843Z,1.63
2023-02-25T18:34:28.312Z,1.67
2023-02-25T18:36:54.703Z,1.15
2023-02-25T18:39:25.253Z,1.05
2023-02-25T18:41:51.784Z,1.70
2023-02-25T18:44:18.199Z,1.02
2023-02-25T18:46:44.592Z,1.40
2023-02-25T18:49:11.058Z,1.38
2023-02-25T18:51:38.575Z,1.23
2023-02-25T18:54:05.660Z,1.50
2023-02-25T18:56:32.568Z,1.23
2023-02-25T18:58:59.234Z,1.07
2023-02-25T19:01:30.788Z,0.73
2023-02-25T19:04:00.045Z,1.20
2023-02-25T19:06:28.306Z,1.30
2023-02-25T19:08:54.685Z,1.00
2023-02-25T19:11:24.209Z,0.90
2023-02-25T19:13:51.657Z,1.17
2023-02-25T19:16:19.090Z,0.95
2023-02-25T19:18:49.824Z,1.40
2023-02-25T19:21:19.033Z,2.10
2023-02-25T19:23:46.099Z,1.37
2023-02-25T19:26:13.065Z,1.02
2023-02-25T19:28:39.485Z,1.30
2023-02-25T19:31:07.272Z,1.52
2023-02-25T19:33:35.126Z,1.65
2023-02-25T19:36:05.135Z,1.10
2023-02-25T19:38:31.620Z,1.30
2023-02-25T19:41:03.042Z,1.33
2023-02-25T19:43:30.864Z,1.33
2023-02-25T19:45:57.213Z,1.50
2023-02-25T19:48:23.763Z,1.40
2023-02-25T19:50:50.129Z,1.17
2023-02-25T19:53:16.517Z,2.13
2023-02-25T19:55:43.647Z,1.40
2023-02-25T19:58:09.970Z,1.13
2023-02-25T20:00:36.360Z,1.33
2023-02-25T20:03:02.777Z,1.50
2023-02-25T20:05:29.122Z,1.60
2023-02-25T20:07:55.529Z,1.00
2023-02-25T20:10:22.228Z,1.40
2023-02-25T20:12:48.750Z,1.27
2023-02-25T20:15:16.228Z,1.80
2023-02-25T20:17:44.018Z,1.98
2023-02-25T20:20:12.837Z,1.20
2023-02-25T20:22:40.019Z,1.75
2023-02-25T20:25:07.986Z,1.57
2023-02-25T20:27:36.930Z,2.13
2023-02-25T20:30:04.556Z,1.92
2023-02-25T20:32:31.016Z,2.30
2023-02-25T20:34:57.902Z,2.30
2023-02-25T20:37:30.559Z,2.70
2023-02-25T20:39:58.494Z,2.50
2023-02-25T20:42:28.155Z,3.53
2023-02-25T20:44:55.459Z,2.50
2023-02-25T20:47:27.985Z,2.90
2023-02-25T20:49:56.440Z,2.57
2023-02-25T20:52:23.857Z,2.90
2023-02-25T20:54:50.282Z,3.00
2023-02-25T20:57:19.540Z,3.45
2023-02-25T20:59:46.210Z,2.97
2023-02-25T21:02:12.562Z,2.93
2023-02-25T21:04:38.990Z,3.38
2023-02-25T21:07:07.006Z,3.22
2023-02-25T21:09:34.200Z,3.63
2023-02-25T21:12:00.674Z,3.83
2023-02-25T21:14:27.059Z,3.50
2023-02-25T21:16:56.807Z,2.92
2023-02-25T21:19:25.797Z,3.90
2023-02-25T21:21:52.809Z,3.90
2023-02-25T21:24:19.554Z,3.50
2023-02-25T21:26:46.601Z,4.27
2023-02-25T21:29:14.066Z,3.47
2023-02-25T21:31:41.412Z,3.00
2023-02-25T21:34:09.172Z,3.72
2023-02-25T21:36:35.957Z,2.97
2023-02-25T21:39:03.189Z,3.70
2023-02-25T21:41:29.614Z,4.30
2023-02-25T21:43:57.194Z,2.85
2023-02-25T21:46:24.534Z,2.85
2023-02-25T21:48:53.121Z,2.58
2023-02-25T21:51:22.054Z,2.20
2023-02-25T21:53:52.734Z,2.90
2023-02-25T21:56:19.142Z,2.40
2023-02-25T21:58:45.888Z,1.52
2023-02-25T22:01:18.591Z,2.33
2023-02-25T22:03:45.905Z,2.50
2023-02-25T22:06:13.044Z,1.85
2023-02-25T22:08:40.655Z,1.83
2023-02-25T22:11:19.491Z,1.70
2023-02-25T22:13:46.607Z,1.60
2023-02-25T22:16:15.073Z,1.67
2023-02-25T22:18:41.914Z,1.45
2023-02-25T22:21:11.864Z,1.92
2023-02-25T22:23:39.500Z,1.67
2023-02-25T22:26:12.026Z,1.58
2023-02-25T22:28:38.804Z,1.60
2023-02-25T22:31:05.588Z,1.58
2023-02-25T22:33:32.511Z,1.63
2023-02-25T22:36:04.673Z,1.90
2023-02-25T22:38:35.257Z,2.08
2023-02-25T22:41:02.341Z,1.93
2023-02-25T22:43:29.745Z,2.58
2023-02-25T22:46:14.684Z,2.80
2023-02-25T22:48:42.864Z,2.67
2023-02-25T22:51:10.424Z,2.45
2023-02-25T22:53:38.318Z,3.17
2023-02-25T22:56:08.568Z,3.05
2023-02-25T22:58:36.951Z,3.22
2023-02-25T23:01:03.272Z,3.33
2023-02-25T23:03:29.615Z,3.78
2023-02-25T23:05:56.189Z,3.50
2023-02-25T23:08:23.793Z,4.10
2023-02-25T23:10:50.248Z,3.90
2023-02-25T23:13:16.738Z,3.30
2023-02-25T23:15:47.262Z,3.22
2023-02-25T23:18:15.267Z,3.50
2023-02-25T23:20:42.270Z,3.97
2023-02-25T23:23:09.493Z,4.43
2023-02-25T23:25:42.010Z,4.22
2023-02-25T23:28:09.397Z,3.85
2023-02-25T23:30:38.998Z,4.30
2023-02-25T23:33:05.900Z,4.10
2023-02-25T23:35:33.439Z,3.70
2023-02-25T23:38:00.077Z,3.58
2023-02-25T23:40:26.550Z,4.53
2023-02-25T23:42:53.479Z,3.47
2023-02-25T23:45:19.811Z,4.15
2023-02-25T23:47:46.210Z,3.50
2023-02-25T23:50:15.701Z,3.22
2023-02-25T23:52:43.754Z,2.25
2023-02-25T23:55:12.256Z,1.83
2023-02-25T23:57:39.134Z,2.20
